createdAt,value
2019-05-17T00:02:19.178Z,17.02
2019-05-17T00:04:49.524Z,17.05
2019-05-17T00:07:20.237Z,17.07
2019-05-17T00:09:50.755Z,17.09
2019-05-17T00:12:21.487Z,17.14
2019-05-17T00:14:52.502Z,17.15
2019-05-17T00:17:22.930Z,17.16
2019-05-17T00:19:53.379Z,17.15
2019-05-17T00:22:23.789Z,17.16
2019-05-17T00:24:56.681Z,17.11
2019-05-17T00:27:27.409Z,17.12
2019-05-17T00:29:57.872Z,17.15
2019-05-17T00:32:28.364Z,17.16
2019-05-17T00:34:58.765Z,17.13
2019-05-17T00:37:29.228Z,17.13
2019-05-17T00:39:59.580Z,17.18
2019-05-17T00:42:29.957Z,17.17
2019-05-17T00:45:00.422Z,17.11
2019-05-17T00:47:30.822Z,17.09
2019-05-17T00:50:01.205Z,16.94
2019-05-17T00:52:31.521Z,16.84
2019-05-17T00:55:01.963Z,16.77
2019-05-17T00:57:32.442Z,16.65
2019-05-17T01:00:03.506Z,16.54
2019-05-17T01:02:36.214Z,16.50
2019-05-17T01:05:06.879Z,16.48
2019-05-17T01:07:39.060Z,16.38
2019-05-17T01:10:10.425Z,16.31
2019-05-17T01:12:42.638Z,16.29
2019-05-17T01:15:13.931Z,16.23
2019-05-17T01:17:47.381Z,16.14
2019-05-17T01:20:18.122Z,16.13
2019-05-17T01:22:48.540Z,16.09
2019-05-17T01:25:20.055Z,16.02
2019-05-17T01:27:52.012Z,15.93
2019-05-17T01:30:22.464Z,15.89
2019-05-17T01:32:53.524Z,15.84
2019-05-17T01:35:26.462Z,15.82
2019-05-17T01:37:56.540Z,15.80
2019-05-17T01:40:27.427Z,15.79
2019-05-17T01:42:58.335Z,15.77
2019-05-17T01:45:28.749Z,15.83
2019-05-17T01:47:59.150Z,15.89
2019-05-17T01:50:29.597Z,15.98
2019-05-17T01:52:59.921Z,16.04
2019-05-17T01:55:30.298Z,16.08
2019-05-17T01:58:00.716Z,16.06
2019-05-17T02:00:31.142Z,16.06
2019-05-17T02:03:01.569Z,16.07
2019-05-17T02:05:32.118Z,15.97
2019-05-17T02:08:02.445Z,16.10
2019-05-17T02:10:32.820Z,16.13
2019-05-17T02:13:03.721Z,16.11
2019-05-17T02:15:34.192Z,16.14
2019-05-17T02:18:07.093Z,16.18
2019-05-17T02:20:37.531Z,16.15
2019-05-17T02:23:08.025Z,16.15
2019-05-17T02:25:38.339Z,16.14
2019-05-17T02:28:08.801Z,16.17
2019-05-17T02:30:39.308Z,16.22
2019-05-17T02:33:12.624Z,16.19
2019-05-17T02:35:42.900Z,16.15
2019-05-17T02:38:14.160Z,16.22
2019-05-17T02:40:45.381Z,16.22
2019-05-17T02:43:15.786Z,16.23
2019-05-17T02:45:46.166Z,16.20
2019-05-17T02:48:23.433Z,16.22
2019-05-17T02:50:54.356Z,16.23
2019-05-17T02:53:24.691Z,16.16
2019-05-17T02:55:55.167Z,16.21
2019-05-17T02:58:25.525Z,16.24
2019-05-17T03:00:56.543Z,16.28
2019-05-17T03:03:27.035Z,16.33
2019-05-17T03:05:57.409Z,16.40
2019-05-17T03:08:28.080Z,16.48
2019-05-17T03:10:58.514Z,16.63
2019-05-17T03:13:28.940Z,16.75
2019-05-17T03:15:59.298Z,16.88
2019-05-17T03:18:33.056Z,16.97
2019-05-17T03:21:03.769Z,17.19
2019-05-17T03:23:34.741Z,17.51
2019-05-17T03:26:05.203Z,17.49
2019-05-17T03:28:35.646Z,17.57
2019-05-17T03:31:08.764Z,17.66
2019-05-17T03:33:38.569Z,18.00
2019-05-17T03:36:09.010Z,18.37
2019-05-17T03:38:39.431Z,18.79
2019-05-17T03:41:22.220Z,19.10
2019-05-17T03:43:44.202Z,19.29
2019-05-17T03:46:14.371Z,19.31
2019-05-17T03:48:44.773Z,19.22
2019-05-17T03:51:15.213Z,19.47
2019-05-17T03:53:45.587Z,19.89
2019-05-17T03:56:16.004Z,20.30
2019-05-17T03:58:46.328Z,20.18
2019-05-17T04:01:16.943Z,20.42
2019-05-17T04:03:47.607Z,21.10
2019-05-17T04:06:18.075Z,21.21
2019-05-17T04:08:48.445Z,21.36
2019-05-17T04:11:27.996Z,21.40
2019-05-17T04:13:53.783Z,21.54
2019-05-17T04:16:23.949Z,21.67
2019-05-17T04:18:54.562Z,22.00
2019-05-17T04:21:25.848Z,22.44
2019-05-17T04:23:56.638Z,22.73
2019-05-17T04:26:26.990Z,22.93
2019-05-17T04:28:57.392Z,23.33
2019-05-17T04:31:30.568Z,23.52
2019-05-17T04:34:03.113Z,22.86
2019-05-17T04:36:32.399Z,22.85
2019-05-17T04:39:02.904Z,23.54
2019-05-17T04:41:45.017Z,24.16
2019-05-17T04:44:05.516Z,24.67
2019-05-17T04:46:35.966Z,25.31
2019-05-17T04:49:06.436Z,25.16
2019-05-17T04:51:36.944Z,25.73
2019-05-17T04:54:07.380Z,25.54
2019-05-17T04:56:37.740Z,25.87
2019-05-17T04:59:08.117Z,26.12
2019-05-17T05:01:38.622Z,26.18
2019-05-17T05:04:08.989Z,26.51
2019-05-17T05:06:39.551Z,26.42
2019-05-17T05:09:12.783Z,26.14
2019-05-17T05:11:55.670Z,26.75
2019-05-17T05:14:14.646Z,27.09
2019-05-17T05:16:45.567Z,27.31
2019-05-17T05:19:15.927Z,27.32
2019-05-17T05:21:47.189Z,27.72
2019-05-17T05:24:17.641Z,27.50
2019-05-17T05:26:48.010Z,27.22
2019-05-17T05:29:18.393Z,27.44
2019-05-17T05:31:48.883Z,27.55
2019-05-17T05:34:21.466Z,27.74
2019-05-17T05:36:52.491Z,27.42
2019-05-17T05:39:22.961Z,27.11
2019-05-17T05:42:06.495Z,26.93
2019-05-17T05:44:25.555Z,26.21
2019-05-17T05:46:56.011Z,26.29
2019-05-17T05:49:26.592Z,26.61
2019-05-17T05:51:57.157Z,26.74
2019-05-17T05:54:28.925Z,26.25
2019-05-17T05:57:02.090Z,26.17
2019-05-17T05:59:32.607Z,26.35
2019-05-17T06:02:03.988Z,26.34
2019-05-17T06:04:35.107Z,26.03
2019-05-17T06:07:05.537Z,26.03
2019-05-17T06:09:35.958Z,26.31
2019-05-17T06:12:18.970Z,26.84
2019-05-17T06:14:38.571Z,27.21
2019-05-17T06:17:09.070Z,27.72
2019-05-17T06:19:42.063Z,28.16
2019-05-17T06:22:12.970Z,27.87
2019-05-17T06:24:43.621Z,27.07
2019-05-17T06:27:14.038Z,26.59
2019-05-17T06:29:47.169Z,26.64
2019-05-17T06:32:17.882Z,27.06
2019-05-17T06:34:48.395Z,27.74
2019-05-17T06:37:18.765Z,28.56
2019-05-17T06:39:49.159Z,28.89
2019-05-17T06:42:22.934Z,29.55
2019-05-17T06:44:52.348Z,29.77
2019-05-17T06:47:22.790Z,29.96
2019-05-17T06:49:53.643Z,29.70
2019-05-17T06:52:24.144Z,29.23
2019-05-17T06:54:54.547Z,28.96
2019-05-17T06:57:24.894Z,28.76
2019-05-17T06:59:55.206Z,29.33
2019-05-17T07:02:25.621Z,29.15
2019-05-17T07:04:57.684Z,28.99
2019-05-17T07:07:30.489Z,29.75
2019-05-17T07:10:01.220Z,29.78
2019-05-17T07:12:33.109Z,29.25
2019-05-17T07:15:03.685Z,28.62
2019-05-17T07:17:34.167Z,28.25
2019-05-17T07:20:06.232Z,27.48
2019-05-17T07:22:37.058Z,27.78
2019-05-17T07:25:10.477Z,28.22
2019-05-17T07:27:45.915Z,27.62
2019-05-17T07:30:16.468Z,26.75
2019-05-17T07:32:46.833Z,26.93
2019-05-17T07:35:19.614Z,27.13
2019-05-17T07:37:50.174Z,27.38
2019-05-17T07:40:21.703Z,26.77
2019-05-17T07:42:52.095Z,26.65
2019-05-17T07:45:22.894Z,26.80
2019-05-17T07:47:53.436Z,27.39
2019-05-17T07:50:23.856Z,28.08
2019-05-17T07:52:54.369Z,27.94
2019-05-17T07:55:24.766Z,28.17
2019-05-17T07:57:55.169Z,27.50
2019-05-17T08:00:25.706Z,27.45
2019-05-17T08:02:56.680Z,27.24
2019-05-17T08:05:29.488Z,26.84
2019-05-17T08:08:00.135Z,26.47
2019-05-17T08:10:31.885Z,26.26
2019-05-17T08:13:02.732Z,26.08
2019-05-17T08:15:35.744Z,25.40
2019-05-17T08:18:10.486Z,25.19
2019-05-17T08:20:40.294Z,25.01
2019-05-17T08:23:11.279Z,25.32
2019-05-17T08:25:52.605Z,25.60
2019-05-17T08:28:14.986Z,25.03
2019-05-17T08:30:45.472Z,25.27
2019-05-17T08:33:16.213Z,25.06
2019-05-17T08:35:46.597Z,25.33
2019-05-17T08:38:19.575Z,25.18
2019-05-17T08:40:50.907Z,25.54
2019-05-17T08:43:22.731Z,24.84
2019-05-17T08:45:53.263Z,24.58
2019-05-17T08:48:23.617Z,24.18
2019-05-17T08:50:54.189Z,23.75
2019-05-17T08:53:24.555Z,23.15
2019-05-17T08:55:54.995Z,22.69
2019-05-17T08:58:25.493Z,21.98
2019-05-17T09:00:55.876Z,21.25
2019-05-17T09:03:26.229Z,20.85
2019-05-17T09:06:01.472Z,20.64
2019-05-17T09:08:29.911Z,20.60
2019-05-17T09:11:00.665Z,20.70
2019-05-17T09:13:31.177Z,20.82
2019-05-17T09:16:01.596Z,20.85
2019-05-17T09:18:32.068Z,20.83
2019-05-17T09:21:02.373Z,20.99
2019-05-17T09:23:32.836Z,21.13
2019-05-17T09:26:03.254Z,20.98
2019-05-17T09:28:34.636Z,21.16
2019-05-17T09:31:05.403Z,21.34
2019-05-17T09:33:40.536Z,21.82
2019-05-17T09:36:10.533Z,22.17
2019-05-17T09:38:40.921Z,21.78
2019-05-17T09:41:11.976Z,21.79
2019-05-17T09:43:42.345Z,21.06
2019-05-17T09:46:12.887Z,20.50
2019-05-17T09:48:46.823Z,20.89
2019-05-17T09:51:15.966Z,20.81
2019-05-17T09:53:46.447Z,21.07
2019-05-17T09:56:17.236Z,21.35
2019-05-17T09:58:49.423Z,21.44
2019-05-17T10:01:20.000Z,21.20
2019-05-17T10:03:50.772Z,21.37
2019-05-17T10:06:21.379Z,21.47
2019-05-17T10:08:52.147Z,21.92
2019-05-17T10:11:22.569Z,22.20
2019-05-17T10:13:52.969Z,21.60
2019-05-17T10:16:24.110Z,21.63
2019-05-17T10:18:54.528Z,21.49
2019-05-17T10:21:25.909Z,21.72
2019-05-17T10:23:56.482Z,21.68
2019-05-17T10:26:26.843Z,21.33
2019-05-17T10:28:59.417Z,21.43
2019-05-17T10:31:30.512Z,21.54
2019-05-17T10:34:01.202Z,21.63
2019-05-17T10:36:32.106Z,21.76
2019-05-17T10:39:02.768Z,22.04
2019-05-17T10:41:34.068Z,22.19
2019-05-17T10:44:04.515Z,22.26
2019-05-17T10:46:35.011Z,22.39
2019-05-17T10:49:05.479Z,22.54
2019-05-17T10:51:35.966Z,22.51
2019-05-17T10:54:09.445Z,22.67
2019-05-17T10:56:39.350Z,22.69
2019-05-17T10:59:10.715Z,22.21
2019-05-17T11:01:41.464Z,22.03
2019-05-17T11:04:11.885Z,21.71
2019-05-17T11:06:44.012Z,21.48
2019-05-17T11:09:14.559Z,21.51
2019-05-17T11:11:45.007Z,21.60
2019-05-17T11:14:15.921Z,21.65
2019-05-17T11:16:46.374Z,21.66
2019-05-17T11:19:16.841Z,21.60
2019-05-17T11:21:47.661Z,21.50
2019-05-17T11:24:18.477Z,21.46
2019-05-17T11:26:49.570Z,21.43
2019-05-17T11:29:20.180Z,21.40
2019-05-17T11:31:50.673Z,21.19
2019-05-17T11:34:24.941Z,21.03
2019-05-17T11:36:53.254Z,20.87
2019-05-17T11:39:23.667Z,20.84
2019-05-17T11:41:54.093Z,20.74
2019-05-17T11:44:24.524Z,20.65
2019-05-17T11:46:54.981Z,20.61
2019-05-17T11:49:25.639Z,20.59
2019-05-17T11:51:56.153Z,20.56
2019-05-17T11:54:26.528Z,20.51
2019-05-17T11:56:56.879Z,20.46
2019-05-17T11:59:27.486Z,20.40
2019-05-17T12:01:57.968Z,20.43
2019-05-17T12:04:28.357Z,20.46
2019-05-17T12:06:58.878Z,20.59
2019-05-17T12:09:37.500Z,20.59
2019-05-17T12:12:01.519Z,20.66
2019-05-17T12:14:32.129Z,20.52
2019-05-17T12:17:02.492Z,20.39
2019-05-17T12:19:32.983Z,20.52
2019-05-17T12:22:03.523Z,20.68
2019-05-17T12:24:33.941Z,20.86
2019-05-17T12:27:04.578Z,20.98
2019-05-17T12:29:35.096Z,21.08
2019-05-17T12:32:06.550Z,21.17
2019-05-17T12:34:36.934Z,21.17
2019-05-17T12:37:07.408Z,21.23
2019-05-17T12:39:37.854Z,21.40
2019-05-17T12:42:08.615Z,21.40
2019-05-17T12:44:39.060Z,21.52
2019-05-17T12:47:09.904Z,21.49
2019-05-17T12:49:40.272Z,21.53
2019-05-17T12:52:11.107Z,21.54
2019-05-17T12:54:41.536Z,21.55
2019-05-17T12:57:11.883Z,21.35
2019-05-17T12:59:42.342Z,21.34
2019-05-17T13:02:12.767Z,21.26
2019-05-17T13:04:43.242Z,21.21
2019-05-17T13:07:14.865Z,21.06
2019-05-17T13:09:45.257Z,20.92
2019-05-17T13:12:15.645Z,20.87
2019-05-17T13:14:46.286Z,20.84
2019-05-17T13:17:16.903Z,20.81
2019-05-17T13:19:47.364Z,20.87
2019-05-17T13:22:17.921Z,20.87
2019-05-17T13:24:48.279Z,20.93
2019-05-17T13:27:18.639Z,20.82
2019-05-17T13:29:49.448Z,20.70
2019-05-17T13:32:19.989Z,20.61
2019-05-17T13:34:50.789Z,20.58
2019-05-17T13:37:21.244Z,20.53
2019-05-17T13:39:51.595Z,20.55
2019-05-17T13:42:22.030Z,20.58
2019-05-17T13:44:52.513Z,20.49
2019-05-17T13:47:23.793Z,20.44
2019-05-17T13:49:54.259Z,20.47
2019-05-17T13:52:25.238Z,20.53
2019-05-17T13:54:55.573Z,20.50
2019-05-17T13:57:25.994Z,20.45
2019-05-17T13:59:56.421Z,20.41
2019-05-17T14:02:26.950Z,20.29
2019-05-17T14:04:57.308Z,20.23
2019-05-17T14:07:27.841Z,20.22
2019-05-17T14:09:58.178Z,20.26
2019-05-17T14:12:28.646Z,20.25
2019-05-17T14:14:59.210Z,20.31
2019-05-17T14:17:29.574Z,20.32
2019-05-17T14:19:59.976Z,20.41
2019-05-17T14:22:30.504Z,20.47
2019-05-17T14:25:01.534Z,20.59
2019-05-17T14:27:31.914Z,20.61
2019-05-17T14:30:02.582Z,20.61
2019-05-17T14:42:58.486Z,20.26
2019-05-17T14:45:29.340Z,20.10
2019-05-17T14:48:00.152Z,19.88
2019-05-17T14:50:30.973Z,19.85
2019-05-17T14:53:02.040Z,19.81
2019-05-17T14:55:32.705Z,19.81
2019-05-17T14:58:05.344Z,19.79
2019-05-17T15:00:37.642Z,19.67
2019-05-17T15:03:08.633Z,19.60
2019-05-17T15:05:39.519Z,19.64
2019-05-17T15:08:11.298Z,19.71
2019-05-17T15:10:42.114Z,19.80
2019-05-17T15:13:12.735Z,19.80
2019-05-17T15:15:43.684Z,19.88
2019-05-17T15:18:14.316Z,19.93
2019-05-17T15:21:06.813Z,19.94
2019-05-17T15:23:39.223Z,20.01
2019-05-17T15:26:10.009Z,19.98
2019-05-17T15:28:40.885Z,20.03
2019-05-17T15:31:11.699Z,20.08
2019-05-17T15:33:42.576Z,19.99
2019-05-17T15:36:14.717Z,19.90
2019-05-17T15:38:46.020Z,19.90
2019-05-17T15:41:17.021Z,19.86
2019-05-17T15:43:47.784Z,19.82
2019-05-17T15:46:19.225Z,19.81
2019-05-17T15:48:50.370Z,19.79
2019-05-17T15:51:21.211Z,19.79
2019-05-17T15:53:52.095Z,19.82
2019-05-17T16:15:29.344Z,19.78
2019-05-17T16:18:00.085Z,19.83
2019-05-17T16:20:31.568Z,19.80
2019-05-17T16:23:03.123Z,19.79
2019-05-17T16:25:34.156Z,19.81
2019-05-17T16:28:05.139Z,19.80
2019-05-17T16:30:35.985Z,19.85
2019-05-17T16:33:06.811Z,19.84
2019-05-17T16:35:37.645Z,19.79
2019-05-17T16:38:10.022Z,19.86
2019-05-17T16:40:40.853Z,19.76
2019-05-17T16:43:18.241Z,19.78
2019-05-17T16:45:45.215Z,19.83
2019-05-17T16:48:16.172Z,19.90
2019-05-17T16:50:46.822Z,19.94
2019-05-17T16:53:17.525Z,20.01
2019-05-17T16:55:48.447Z,20.05
2019-05-17T16:58:19.379Z,20.15
2019-05-17T17:00:50.575Z,20.21
2019-05-17T17:03:21.552Z,20.29
2019-05-17T17:05:52.383Z,20.33
2019-05-17T17:08:23.278Z,20.33
2019-05-17T17:10:53.771Z,20.32
2019-05-17T17:13:32.751Z,20.38
2019-05-17T17:15:56.733Z,20.40
2019-05-17T17:18:27.619Z,20.53
2019-05-17T17:20:58.291Z,20.56
2019-05-17T17:23:29.005Z,20.63
2019-05-17T17:25:59.961Z,20.53
2019-05-17T17:28:30.396Z,20.49
2019-05-17T17:31:01.256Z,20.37
2019-05-17T17:33:31.796Z,20.19
2019-05-17T17:36:05.144Z,20.08
2019-05-17T17:38:37.194Z,20.03
2019-05-17T17:41:07.739Z,19.99
2019-05-17T17:43:38.069Z,19.98
2019-05-17T17:46:08.496Z,20.03
2019-05-17T17:48:39.103Z,20.03
2019-05-17T17:51:09.701Z,20.04
2019-05-17T17:53:40.245Z,19.93
2019-05-17T17:56:13.563Z,19.98
2019-05-17T17:58:44.072Z,19.97
2019-05-17T18:01:14.671Z,19.94
2019-05-17T18:03:45.398Z,20.02
2019-05-17T18:06:16.088Z,20.00
2019-05-17T18:08:46.691Z,20.06
2019-05-17T18:11:17.632Z,20.06
2019-05-17T18:13:48.226Z,20.09
2019-05-17T18:16:18.873Z,20.05
2019-05-17T18:18:49.508Z,20.00
2019-05-17T18:21:20.215Z,19.96
2019-05-17T18:23:53.295Z,19.83
2019-05-17T18:26:23.842Z,19.81
2019-05-17T18:28:54.224Z,19.81
2019-05-17T18:31:25.212Z,19.82
2019-05-17T18:33:55.951Z,19.87
2019-05-17T18:36:26.295Z,19.92
2019-05-17T18:38:58.793Z,20.00
2019-05-17T18:41:29.357Z,20.09
2019-05-17T18:43:59.952Z,20.13
2019-05-17T18:46:30.535Z,20.15
2019-05-17T18:49:01.111Z,20.18
2019-05-17T18:51:31.864Z,20.16
2019-05-17T18:54:03.415Z,20.19
2019-05-17T18:56:33.882Z,20.20
2019-05-17T18:59:04.445Z,20.24
2019-05-17T19:01:35.052Z,20.32
2019-05-17T19:04:05.602Z,20.44
2019-05-17T19:06:37.076Z,20.54
2019-05-17T19:09:09.950Z,20.46
2019-05-17T19:11:40.720Z,20.40
2019-05-17T19:14:11.685Z,20.34
2019-05-17T19:16:42.601Z,20.32
2019-05-17T19:19:13.175Z,20.49
2019-05-17T19:21:44.939Z,20.70
2019-05-17T19:24:15.640Z,20.78
2019-05-17T19:26:46.301Z,20.54
2019-05-17T19:29:16.667Z,20.34
2019-05-17T19:31:47.849Z,20.29
2019-05-17T19:34:19.352Z,20.26
2019-05-17T19:36:49.789Z,20.22
2019-05-17T19:39:22.279Z,20.25
2019-05-17T19:41:52.828Z,20.40
2019-05-17T19:44:23.280Z,20.49
2019-05-17T19:46:53.819Z,20.53
2019-05-17T19:49:25.018Z,20.45
2019-05-17T19:51:56.312Z,20.23
2019-05-17T19:54:26.945Z,20.09
2019-05-17T19:56:57.556Z,19.98
2019-05-17T19:59:28.153Z,19.88
2019-05-17T20:01:58.706Z,19.80
2019-05-17T20:04:29.187Z,19.73
2019-05-17T20:07:00.263Z,19.68
2019-05-17T20:09:30.751Z,19.69
2019-05-17T20:12:01.240Z,19.74
2019-05-17T20:14:31.849Z,19.75
2019-05-17T20:17:02.628Z,19.82
2019-05-17T20:19:33.094Z,19.84
2019-05-17T20:22:03.830Z,19.92
2019-05-17T20:24:34.665Z,19.88
2019-05-17T20:27:05.428Z,19.90
2019-05-17T20:29:36.742Z,19.94
2019-05-17T20:32:07.368Z,19.90
2019-05-17T20:34:37.783Z,19.88
2019-05-17T20:37:09.268Z,19.92
2019-05-17T20:39:40.971Z,19.98
2019-05-17T20:42:11.481Z,19.96
2019-05-17T20:44:42.286Z,20.07
2019-05-17T20:47:12.791Z,20.18
2019-05-17T20:49:43.466Z,20.20
2019-05-17T20:52:14.830Z,20.26
2019-05-17T20:54:45.377Z,20.27
2019-05-17T20:57:19.792Z,20.13
2019-05-17T20:59:50.064Z,20.08
2019-05-17T21:02:20.447Z,19.99
2019-05-17T21:04:50.620Z,19.98
2019-05-17T21:07:21.009Z,19.81
2019-05-17T21:09:51.278Z,19.81
2019-05-17T21:12:21.522Z,19.88
2019-05-17T21:14:56.166Z,20.00
2019-05-17T21:17:24.586Z,20.10
2019-05-17T21:19:54.820Z,20.12
2019-05-17T21:22:25.860Z,20.14
2019-05-17T21:24:56.103Z,20.11
2019-05-17T21:27:26.369Z,20.07
2019-05-17T21:29:56.793Z,19.80
2019-05-17T21:32:27.024Z,19.64
2019-05-17T21:34:57.237Z,19.51
2019-05-17T21:37:27.536Z,19.53
2019-05-17T21:39:58.870Z,19.50
2019-05-17T21:42:29.178Z,19.50
2019-05-17T21:44:59.828Z,19.44
2019-05-17T21:47:32.209Z,19.51
2019-05-17T21:50:02.503Z,19.39
2019-05-17T21:52:32.832Z,19.37
2019-05-17T21:55:03.074Z,19.38
2019-05-17T21:57:35.245Z,19.29
2019-05-17T22:00:09.405Z,19.25
2019-05-17T22:02:41.974Z,19.24
2019-05-17T22:05:12.654Z,19.20
2019-05-17T22:07:43.185Z,19.16
2019-05-17T22:10:17.068Z,19.12
2019-05-17T22:12:47.736Z,19.09
2019-05-17T22:15:18.787Z,19.06
2019-05-17T22:17:49.419Z,18.97
2019-05-17T22:20:20.044Z,18.85
2019-05-17T22:22:50.446Z,18.66
2019-05-17T22:25:21.308Z,18.52
2019-05-17T22:27:54.750Z,18.55
2019-05-17T22:30:25.138Z,18.57
2019-05-17T22:32:58.104Z,18.46
2019-05-17T22:35:28.843Z,18.39
2019-05-17T22:37:59.256Z,18.27
2019-05-17T22:40:30.983Z,18.26
2019-05-17T22:43:01.651Z,18.20
2019-05-17T22:45:34.189Z,18.19
2019-05-17T22:48:04.788Z,18.15
2019-05-17T22:50:35.560Z,18.08
2019-05-17T22:53:06.099Z,18.07
2019-05-17T22:55:36.908Z,18.05
2019-05-17T22:58:07.369Z,18.00
2019-05-17T23:00:38.175Z,17.99
2019-05-17T23:03:09.069Z,17.98
2019-05-17T23:05:39.643Z,17.96
2019-05-17T23:08:10.622Z,17.88
2019-05-17T23:10:41.306Z,17.83
2019-05-17T23:13:12.231Z,17.83
2019-05-17T23:16:02.960Z,17.77
2019-05-17T23:19:10.106Z,17.70
2019-05-17T23:21:40.875Z,17.64
2019-05-17T23:24:11.977Z,17.56
2019-05-17T23:26:43.068Z,17.47
2019-05-17T23:29:14.022Z,17.45
2019-05-17T23:31:45.220Z,17.39
2019-05-17T23:34:15.573Z,17.45
2019-05-17T23:36:48.331Z,17.46
2019-05-17T23:39:18.751Z,17.49
2019-05-17T23:41:50.523Z,17.45
2019-05-17T23:44:24.302Z,17.45
2019-05-17T23:47:06.565Z,17.45
2019-05-17T23:49:27.610Z,17.49
2019-05-17T23:51:58.817Z,17.51
2019-05-17T23:54:29.747Z,17.46
2019-05-17T23:57:00.339Z,17.47
2019-05-17T23:59:32.260Z,17.33
